Time;durP1;ratioP1;P1;durP2;ratioP2;P2;SDS_P1;SDS_P2;PMS_P1;PMS_P2;Temp;Humidity;BMP_temperature;BMP_pressure;BME280_temperature;BME280_humidity;BME280_pressure;Samples;Min_cycle;Max_cycle;Signal;HPM_P1;HPM_P2
2022/09/07 00:01:59;;;;;;;;;;;19.80;99.90;;;;;;5086421;28;19924;-79
2022/09/07 00:04:25;;;;;;;;;;;19.80;99.90;;;;;;5104605;28;19947;-79
2022/09/07 00:06:50;;;;;;;;;;;19.80;99.90;;;;;;5111684;28;19934;-79
2022/09/07 00:09:16;;;;;;;;;;;19.80;99.90;;;;;;5078626;28;20427;-79
2022/09/07 00:11:42;;;;;;;;;;;19.70;99.90;;;;;;5114642;28;19981;-79
2022/09/07 00:14:07;;;;;;;;;;;19.70;99.90;;;;;;5122108;28;20360;-79
2022/09/07 00:16:33;;;;;;;;;;;19.60;99.90;;;;;;5132405;28;19923;-79
2022/09/07 00:19:00;;;;;;;;;;;19.50;99.90;;;;;;5095205;28;19924;-79
2022/09/07 00:21:26;;;;;;;;;;;19.50;99.90;;;;;;5113086;28;19935;-80
2022/09/07 00:23:51;;;;;;;;;;;19.40;99.90;;;;;;5115765;28;19924;-79
2022/09/07 00:26:19;;;;;;;;;;;19.40;99.90;;;;;;5119784;28;20026;-79
2022/09/07 00:28:45;;;;;;;;;;;19.40;99.90;;;;;;5135297;27;20018;-79
2022/09/07 00:31:13;;;;;;;;;;;19.40;99.90;;;;;;5136514;27;19972;-79
2022/09/07 00:33:39;;;;;;;;;;;19.40;99.90;;;;;;5117476;27;19969;-79
2022/09/07 00:36:05;;;;;;;;;;;19.40;99.90;;;;;;5129288;27;20364;-79
2022/09/07 00:38:31;;;;;;;;;;;19.40;99.90;;;;;;5122591;27;19935;-79
2022/09/07 00:40:56;;;;;;;;;;;19.40;99.90;;;;;;5130187;27;20019;-79
2022/09/07 00:43:57;;;;;;;;;;;19.30;99.90;;;;;;5115639;28;20008;-79
2022/09/07 00:46:24;;;;;;;;;;;19.30;99.90;;;;;;5029731;28;20288;-80
2022/09/07 00:48:59;;;;;;;;;;;19.20;99.90;;;;;;5098919;28;19924;-79
2022/09/07 00:51:27;;;;;;;;;;;19.20;99.90;;;;;;5102670;28;19946;-79
2022/09/07 00:53:56;;;;;;;;;;;19.20;99.90;;;;;;5115339;28;19930;-77
2022/09/07 00:56:23;;;;;;;;;;;19.10;99.90;;;;;;5125146;27;19924;-74
2022/09/07 00:58:50;;;;;;;;;;;19.00;99.90;;;;;;5115066;27;19927;-76
2022/09/07 01:01:16;;;;;;;;;;;18.80;99.90;;;;;;5134324;27;19934;-76
2022/09/07 01:03:44;;;;;;;;;;;18.80;99.90;;;;;;5094925;28;19951;-77
2022/09/07 01:06:21;;;;;;;;;;;18.70;99.90;;;;;;5100636;28;19924;-77
2022/09/07 01:08:48;;;;;;;;;;;18.70;99.90;;;;;;5095396;28;19930;-77
2022/09/07 01:11:14;;;;;;;;;;;18.70;99.90;;;;;;5121728;27;20007;-77
2022/09/07 01:13:41;;;;;;;;;;;18.60;99.90;;;;;;5110981;28;19985;-77
2022/09/07 01:16:19;;;;;;;;;;;18.60;99.90;;;;;;5111708;28;19924;-77
2022/09/07 01:18:54;;;;;;;;;;;18.60;99.90;;;;;;5111542;28;20018;-76
2022/09/07 01:21:21;;;;;;;;;;;18.50;99.90;;;;;;5108672;28;19923;-76
2022/09/07 01:24:05;;;;;;;;;;;18.50;99.90;;;;;;5097181;28;19929;-77
2022/09/07 01:26:46;;;;;;;;;;;18.50;99.90;;;;;;5082696;28;20344;-82
2022/09/07 01:29:17;;;;;;;;;;;18.40;99.90;;;;;;5095502;28;20332;-77
2022/09/07 01:31:42;;;;;;;;;;;18.40;99.90;;;;;;5108787;28;19950;-77
2022/09/07 01:34:12;;;;;;;;;;;18.30;99.90;;;;;;5095157;28;19924;-77
2022/09/07 01:36:43;;;;;;;;;;;18.30;99.90;;;;;;5105236;28;19969;-77
2022/09/07 01:39:09;;;;;;;;;;;18.20;99.90;;;;;;5095083;28;19981;-77
2022/09/07 01:41:42;;;;;;;;;;;18.20;99.90;;;;;;5078177;28;19928;-77
2022/09/07 01:44:10;;;;;;;;;;;18.20;99.90;;;;;;5094936;28;19949;-77
2022/09/07 01:46:44;;;;;;;;;;;18.20;99.90;;;;;;5108539;28;19970;-78
2022/09/07 01:49:15;;;;;;;;;;;18.10;99.90;;;;;;5103305;28;20346;-77
2022/09/07 01:51:43;;;;;;;;;;;18.10;99.90;;;;;;5105894;28;20467;-77
2022/09/07 01:54:11;;;;;;;;;;;18.00;99.90;;;;;;5111460;28;19962;-77
2022/09/07 01:56:42;;;;;;;;;;;18.00;99.90;;;;;;5109038;28;19986;-82
2022/09/07 01:59:19;;;;;;;;;;;18.00;99.90;;;;;;5106430;28;19975;-77
2022/09/07 02:01:59;;;;;;;;;;;17.90;99.90;;;;;;5093461;28;19924;-77
2022/09/07 02:04:30;;;;;;;;;;;17.90;99.90;;;;;;5118947;27;20359;-78
2022/09/07 02:07:03;;;;;;;;;;;17.80;99.90;;;;;;5113560;28;20482;-78
2022/09/07 02:09:34;;;;;;;;;;;17.80;99.90;;;;;;5127770;27;19928;-78
2022/09/07 02:12:03;;;;;;;;;;;17.70;99.90;;;;;;5119700;27;20026;-78
2022/09/07 02:14:43;;;;;;;;;;;17.70;99.90;;;;;;5129379;27;20379;-78
2022/09/07 02:17:12;;;;;;;;;;;17.50;99.90;;;;;;5131381;27;19923;-78
2022/09/07 02:19:47;;;;;;;;;;;17.50;99.90;;;;;;5112799;28;19928;-78
2022/09/07 02:22:14;;;;;;;;;;;17.50;99.90;;;;;;5132634;27;20423;-77
2022/09/07 02:24:44;;;;;;;;;;;17.50;99.90;;;;;;5100078;27;19930;-78
2022/09/07 02:27:15;;;;;;;;;;;17.50;99.90;;;;;;5133247;27;19924;-77
2022/09/07 02:29:42;;;;;;;;;;;17.50;99.90;;;;;;5133601;27;19934;-78
2022/09/07 02:32:08;;;;;;;;;;;17.50;99.90;;;;;;5114758;27;20487;-77
2022/09/07 02:34:34;;;;;;;;;;;17.50;99.90;;;;;;5129820;27;19927;-77
2022/09/07 02:37:00;;;;;;;;;;;17.50;99.90;;;;;;5121855;27;20006;-77
2022/09/07 02:39:26;;;;;;;;;;;17.50;99.90;;;;;;5119820;27;19923;-77
2022/09/07 02:41:52;;;;;;;;;;;17.50;99.90;;;;;;5105025;28;20390;-77
2022/09/07 02:44:23;;;;;;;;;;;17.50;99.90;;;;;;5101227;28;19973;-78
2022/09/07 02:47:01;;;;;;;;;;;17.50;99.90;;;;;;5112823;27;19924;-78
2022/09/07 02:49:42;;;;;;;;;;;17.60;99.90;;;;;;5112851;28;19924;-77
2022/09/07 02:52:08;;;;;;;;;;;17.60;99.90;;;;;;5123726;27;19946;-78
2022/09/07 02:54:36;;;;;;;;;;;17.60;99.90;;;;;;5120556;27;19924;-77
2022/09/07 02:57:21;;;;;;;;;;;17.60;99.90;;;;;;5132523;27;19923;-77
2022/09/07 03:00:06;;;;;;;;;;;17.70;99.90;;;;;;5127871;27;19928;-78
2022/09/07 03:02:55;;;;;;;;;;;17.70;99.90;;;;;;5120007;27;19928;-78
2022/09/07 03:05:40;;;;;;;;;;;17.70;99.90;;;;;;5115440;28;19927;-78
2022/09/07 03:08:15;;;;;;;;;;;17.70;99.90;;;;;;5119846;27;20410;-78
2022/09/07 03:10:41;;;;;;;;;;;17.70;99.90;;;;;;5128983;27;20022;-79
2022/09/07 03:13:07;;;;;;;;;;;17.80;99.90;;;;;;5114982;28;19931;-81
2022/09/07 03:15:32;;;;;;;;;;;17.80;99.90;;;;;;5119470;27;19924;-78
2022/09/07 03:17:58;;;;;;;;;;;17.80;99.90;;;;;;5119958;28;19973;-78
2022/09/07 03:20:23;;;;;;;;;;;17.80;99.90;;;;;;5127482;28;19974;-78
2022/09/07 03:22:50;;;;;;;;;;;17.80;99.90;;;;;;5101450;28;20019;-78
2022/09/07 03:25:15;;;;;;;;;;;17.80;99.90;;;;;;5099645;28;19923;-78
2022/09/07 03:27:41;;;;;;;;;;;17.80;99.90;;;;;;5120547;28;19941;-78
2022/09/07 03:30:08;;;;;;;;;;;17.80;99.90;;;;;;5131790;28;19924;-78
2022/09/07 03:32:34;;;;;;;;;;;17.80;99.90;;;;;;5122066;28;20268;-78
2022/09/07 03:35:00;;;;;;;;;;;17.80;99.90;;;;;;5132598;28;19930;-78
2022/09/07 03:37:26;;;;;;;;;;;17.80;99.90;;;;;;5112718;28;19923;-78
2022/09/07 03:39:52;;;;;;;;;;;17.80;99.90;;;;;;5132120;28;19980;-78
2022/09/07 03:42:17;;;;;;;;;;;17.80;99.90;;;;;;5123171;28;19923;-78
2022/09/07 03:44:43;;;;;;;;;;;17.80;99.90;;;;;;5111691;28;19947;-79
2022/09/07 03:47:09;;;;;;;;;;;17.90;99.90;;;;;;5104262;28;20390;-78
2022/09/07 03:49:34;;;;;;;;;;;17.90;99.90;;;;;;5132978;28;19976;-79
2022/09/07 03:52:00;;;;;;;;;;;17.80;99.90;;;;;;5111049;28;20377;-78
2022/09/07 03:54:26;;;;;;;;;;;17.80;99.90;;;;;;5110174;28;19923;-78
2022/09/07 03:56:51;;;;;;;;;;;17.90;99.90;;;;;;5115069;28;20015;-78
2022/09/07 03:59:17;;;;;;;;;;;17.90;99.90;;;;;;5122129;28;20375;-78
2022/09/07 04:01:43;;;;;;;;;;;17.90;99.90;;;;;;5125618;27;19946;-78
2022/09/07 04:04:08;;;;;;;;;;;18.00;99.90;;;;;;5107710;28;19932;-78
2022/09/07 04:06:34;;;;;;;;;;;18.00;99.90;;;;;;5095644;27;20295;-79
2022/09/07 04:09:00;;;;;;;;;;;18.00;99.90;;;;;;5104216;27;20069;-78
2022/09/07 04:11:26;;;;;;;;;;;18.00;99.90;;;;;;5102018;27;20023;-78
2022/09/07 04:13:51;;;;;;;;;;;18.00;99.90;;;;;;5115569;27;20084;-78
2022/09/07 04:16:19;;;;;;;;;;;18.00;99.90;;;;;;5109246;28;20013;-78
2022/09/07 04:18:44;;;;;;;;;;;18.00;99.90;;;;;;5134236;27;20016;-78
2022/09/07 04:21:10;;;;;;;;;;;18.00;99.90;;;;;;5114360;28;19978;-78
2022/09/07 04:23:40;;;;;;;;;;;18.00;99.90;;;;;;5098588;28;19935;-79
2022/09/07 04:26:05;;;;;;;;;;;18.00;99.90;;;;;;5108740;27;19923;-78
2022/09/07 04:28:31;;;;;;;;;;;18.00;99.90;;;;;;5110162;28;19928;-78
2022/09/07 04:31:00;;;;;;;;;;;18.00;99.90;;;;;;5117739;27;19955;-78
2022/09/07 04:33:26;;;;;;;;;;;17.90;99.90;;;;;;5118790;27;19924;-79
2022/09/07 04:35:52;;;;;;;;;;;17.90;99.90;;;;;;5115082;27;19930;-79
2022/09/07 04:38:17;;;;;;;;;;;17.90;99.90;;;;;;5135993;27;19928;-78
2022/09/07 04:40:43;;;;;;;;;;;17.90;99.90;;;;;;5126283;27;19931;-78
2022/09/07 04:43:11;;;;;;;;;;;17.90;99.90;;;;;;5122244;27;20010;-79
2022/09/07 04:45:37;;;;;;;;;;;17.90;99.90;;;;;;5118423;27;19931;-78
2022/09/07 04:48:03;;;;;;;;;;;17.90;99.90;;;;;;5130701;27;20386;-78
2022/09/07 04:50:29;;;;;;;;;;;17.90;99.90;;;;;;5149210;27;19959;-78
2022/09/07 04:52:55;;;;;;;;;;;17.90;99.90;;;;;;5129086;27;20329;-78
2022/09/07 04:55:21;;;;;;;;;;;17.80;99.90;;;;;;5135853;27;19963;-78
2022/09/07 04:57:49;;;;;;;;;;;17.90;99.90;;;;;;5113382;27;19949;-78
2022/09/07 05:00:15;;;;;;;;;;;17.80;99.90;;;;;;5134482;27;19924;-78
2022/09/07 05:02:41;;;;;;;;;;;17.80;99.90;;;;;;5101572;27;20010;-79
2022/09/07 05:05:07;;;;;;;;;;;17.80;99.90;;;;;;5130421;27;19923;-78
2022/09/07 05:07:32;;;;;;;;;;;17.80;99.90;;;;;;5118050;27;19924;-78
2022/09/07 05:09:58;;;;;;;;;;;17.80;99.90;;;;;;5110146;27;19968;-78
2022/09/07 05:12:23;;;;;;;;;;;17.80;99.90;;;;;;5114566;27;20014;-78
2022/09/07 05:14:49;;;;;;;;;;;17.80;99.90;;;;;;5132832;27;19924;-78
2022/09/07 05:17:14;;;;;;;;;;;17.80;99.90;;;;;;5114405;27;19923;-78
2022/09/07 05:19:40;;;;;;;;;;;17.80;99.90;;;;;;5135072;27;20012;-78
2022/09/07 05:22:06;;;;;;;;;;;17.80;99.90;;;;;;5112105;27;19927;-78
2022/09/07 05:24:33;;;;;;;;;;;17.80;99.90;;;;;;5113719;27;19978;-78
2022/09/07 05:27:00;;;;;;;;;;;17.90;99.90;;;;;;5127681;27;19988;-79
2022/09/07 05:29:26;;;;;;;;;;;17.90;99.90;;;;;;5134152;27;19946;-78
2022/09/07 05:31:51;;;;;;;;;;;17.90;99.90;;;;;;5129461;27;19924;-78
2022/09/07 05:34:17;;;;;;;;;;;17.90;99.90;;;;;;5116064;27;20375;-78
2022/09/07 05:36:43;;;;;;;;;;;17.90;99.90;;;;;;5104020;28;20295;-78
2022/09/07 05:39:08;;;;;;;;;;;18.00;99.90;;;;;;5098788;27;19958;-78
2022/09/07 05:41:34;;;;;;;;;;;18.00;99.90;;;;;;5133335;27;19923;-78
2022/09/07 05:43:59;;;;;;;;;;;18.00;99.90;;;;;;5127270;27;20379;-77
2022/09/07 05:46:25;;;;;;;;;;;18.00;99.90;;;;;;5125840;27;20434;-78
2022/09/07 05:48:51;;;;;;;;;;;18.00;99.90;;;;;;5132546;27;19927;-77
2022/09/07 05:51:16;;;;;;;;;;;18.00;99.90;;;;;;5117254;27;20358;-77
2022/09/07 05:53:43;;;;;;;;;;;18.00;99.90;;;;;;5113935;28;19988;-77
2022/09/07 05:56:09;;;;;;;;;;;18.00;99.90;;;;;;5109213;27;19923;-77
2022/09/07 05:58:35;;;;;;;;;;;18.00;99.90;;;;;;5134150;27;19954;-77
2022/09/07 06:01:04;;;;;;;;;;;18.00;99.90;;;;;;5133829;27;19927;-77
2022/09/07 06:03:30;;;;;;;;;;;18.10;99.90;;;;;;5131575;27;19923;-78
2022/09/07 06:06:15;;;;;;;;;;;18.10;99.90;;;;;;5114733;27;20428;-80
2022/09/07 06:08:48;;;;;;;;;;;18.10;99.90;;;;;;5129677;27;19926;-78
2022/09/07 06:11:15;;;;;;;;;;;18.10;99.90;;;;;;5115675;27;19931;-87
2022/09/07 06:13:41;;;;;;;;;;;18.10;99.90;;;;;;5118986;27;19931;-92
2022/09/07 06:16:08;;;;;;;;;;;18.10;99.90;;;;;;5115121;27;20423;-89
2022/09/07 06:18:34;;;;;;;;;;;18.20;99.90;;;;;;5138174;27;19923;-90
2022/09/07 06:21:03;;;;;;;;;;;18.20;99.90;;;;;;5115623;27;19923;-79
2022/09/07 06:23:30;;;;;;;;;;;18.20;99.90;;;;;;5111313;27;19946;-79
2022/09/07 06:25:55;;;;;;;;;;;18.20;99.90;;;;;;5114985;27;20375;-79
2022/09/07 06:28:26;;;;;;;;;;;18.20;99.90;;;;;;5115138;27;19972;-80
2022/09/07 06:30:51;;;;;;;;;;;18.10;99.90;;;;;;5135119;27;19934;-79
2022/09/07 06:33:17;;;;;;;;;;;18.20;99.90;;;;;;5119911;27;20290;-80
2022/09/07 06:35:42;;;;;;;;;;;18.20;99.90;;;;;;5120150;27;19927;-80
2022/09/07 06:38:08;;;;;;;;;;;18.20;99.90;;;;;;5137323;27;19923;-79
2022/09/07 06:40:34;;;;;;;;;;;18.30;99.90;;;;;;5120840;27;19982;-80
2022/09/07 06:43:00;;;;;;;;;;;18.30;99.90;;;;;;5120294;27;19926;-79
2022/09/07 06:45:25;;;;;;;;;;;18.30;99.90;;;;;;5136858;27;20064;-80
2022/09/07 06:47:52;;;;;;;;;;;18.30;99.90;;;;;;5137185;27;19934;-79
2022/09/07 06:50:18;;;;;;;;;;;18.30;99.90;;;;;;5119239;27;19929;-79
2022/09/07 06:52:43;;;;;;;;;;;18.40;99.90;;;;;;5118275;27;19923;-80
2022/09/07 06:55:09;;;;;;;;;;;18.50;99.90;;;;;;5118901;27;19923;-79
2022/09/07 06:57:34;;;;;;;;;;;18.50;99.90;;;;;;5117710;27;19929;-86
2022/09/07 07:00:00;;;;;;;;;;;18.50;99.90;;;;;;5118604;27;19923;-82
2022/09/07 07:02:26;;;;;;;;;;;18.60;99.90;;;;;;5117477;27;20009;-84
2022/09/07 07:04:51;;;;;;;;;;;18.50;99.90;;;;;;5115920;27;20438;-79
2022/09/07 07:07:17;;;;;;;;;;;18.40;99.90;;;;;;5102311;27;19923;-78
2022/09/07 07:09:42;;;;;;;;;;;18.50;99.90;;;;;;5116056;27;20446;-79
2022/09/07 07:12:09;;;;;;;;;;;18.50;99.90;;;;;;5107094;27;20371;-79
2022/09/07 07:14:34;;;;;;;;;;;18.60;99.90;;;;;;5136751;27;19931;-79
2022/09/07 07:17:00;;;;;;;;;;;18.60;99.90;;;;;;5119737;27;19984;-79
2022/09/07 07:19:26;;;;;;;;;;;18.60;99.90;;;;;;5119416;27;19930;-80
2022/09/07 07:21:51;;;;;;;;;;;18.60;99.90;;;;;;5136135;27;19938;-79
2022/09/07 07:24:17;;;;;;;;;;;18.60;99.90;;;;;;5118596;27;20014;-78
2022/09/07 07:26:47;;;;;;;;;;;18.60;99.90;;;;;;5119465;27;19923;-79
2022/09/07 07:29:12;;;;;;;;;;;18.60;99.90;;;;;;5115684;28;19930;-79
2022/09/07 07:31:38;;;;;;;;;;;18.80;99.90;;;;;;5115892;28;19923;-79
2022/09/07 07:34:04;;;;;;;;;;;18.80;99.90;;;;;;5091741;27;20022;-79
2022/09/07 07:36:29;;;;;;;;;;;18.90;99.90;;;;;;5103771;27;20006;-82
2022/09/07 07:38:55;;;;;;;;;;;18.80;99.90;;;;;;5106694;27;19923;-79
2022/09/07 07:41:24;;;;;;;;;;;18.80;99.90;;;;;;5123352;27;20021;-78
2022/09/07 07:43:55;;;;;;;;;;;18.80;99.90;;;;;;5121788;27;19927;-82
2022/09/07 07:46:21;;;;;;;;;;;18.70;99.90;;;;;;5122905;27;19927;-80
2022/09/07 07:48:47;;;;;;;;;;;18.70;99.90;;;;;;5140352;27;19923;-82
2022/09/07 07:51:14;;;;;;;;;;;18.60;99.90;;;;;;5139109;27;19923;-86
2022/09/07 07:53:40;;;;;;;;;;;18.60;99.90;;;;;;5104692;27;19974;-83
2022/09/07 07:56:06;;;;;;;;;;;18.60;99.90;;;;;;5118861;27;19935;-82
2022/09/07 07:58:33;;;;;;;;;;;18.50;99.90;;;;;;5137139;27;19927;-81
2022/09/07 08:01:06;;;;;;;;;;;18.50;99.90;;;;;;5139623;27;19931;-83
2022/09/07 08:03:37;;;;;;;;;;;18.40;99.90;;;;;;5139446;27;19979;-83
2022/09/07 08:06:08;;;;;;;;;;;18.40;99.90;;;;;;5136883;27;19934;-78
2022/09/07 08:08:34;;;;;;;;;;;18.40;99.90;;;;;;5143239;27;19935;-79
2022/09/07 08:11:01;;;;;;;;;;;18.50;99.90;;;;;;5145604;27;20264;-82
2022/09/07 08:13:28;;;;;;;;;;;18.60;99.90;;;;;;5126042;27;19923;-80
2022/09/07 08:15:58;;;;;;;;;;;18.50;99.90;;;;;;5127059;27;19923;-80
2022/09/07 08:18:24;;;;;;;;;;;18.50;99.90;;;;;;5128484;27;19935;-81
2022/09/07 08:20:49;;;;;;;;;;;18.50;99.90;;;;;;5120669;27;19923;-82
2022/09/07 08:23:15;;;;;;;;;;;18.60;99.90;;;;;;5122751;27;19942;-81
2022/09/07 08:25:50;;;;;;;;;;;18.60;99.90;;;;;;5126470;27;19923;-81
2022/09/07 08:28:16;;;;;;;;;;;18.60;99.90;;;;;;5117306;27;19930;-81
2022/09/07 08:30:42;;;;;;;;;;;18.60;99.90;;;;;;5134240;27;19923;-83
2022/09/07 08:33:08;;;;;;;;;;;18.60;99.90;;;;;;5119224;27;19926;-79
2022/09/07 08:35:33;;;;;;;;;;;18.60;99.90;;;;;;5136333;27;19950;-80
2022/09/07 08:37:59;;;;;;;;;;;18.70;99.90;;;;;;5118042;27;19923;-81
2022/09/07 08:40:24;;;;;;;;;;;18.70;99.90;;;;;;5119246;27;20267;-79
2022/09/07 08:42:53;;;;;;;;;;;18.80;99.90;;;;;;5116081;27;20381;-78
2022/09/07 08:45:27;;;;;;;;;;;19.00;99.90;;;;;;5098925;27;20026;-78
2022/09/07 08:47:53;;;;;;;;;;;19.20;99.90;;;;;;5115445;27;19987;-79
2022/09/07 08:50:32;;;;;;;;;;;19.40;99.90;;;;;;5134329;27;19927;-80
2022/09/07 08:53:01;;;;;;;;;;;19.60;99.90;;;;;;5136798;27;19927;-79
2022/09/07 08:55:30;;;;;;;;;;;19.60;99.90;;;;;;5136406;27;19927;-81
2022/09/07 08:58:00;;;;;;;;;;;19.60;99.90;;;;;;5131291;27;20353;-79
2022/09/07 09:00:26;;;;;;;;;;;19.70;99.90;;;;;;5139646;27;20013;-79
2022/09/07 09:02:52;;;;;;;;;;;19.70;99.90;;;;;;5109674;27;20010;-79
2022/09/07 09:05:26;;;;;;;;;;;19.90;99.90;;;;;;5111418;28;20417;-82
2022/09/07 09:08:10;;;;;;;;;;;20.10;99.90;;;;;;5110804;27;19931;-79
2022/09/07 09:11:00;;;;;;;;;;;20.30;99.90;;;;;;5136310;27;19927;-82
2022/09/07 09:13:37;;;;;;;;;;;20.50;99.90;;;;;;5092062;27;19924;-83
2022/09/07 09:16:03;;;;;;;;;;;20.70;99.90;;;;;;5132841;27;19931;-89
2022/09/07 09:18:42;;;;;;;;;;;20.80;99.90;;;;;;5115063;27;19924;-87
2022/09/07 09:21:12;;;;;;;;;;;20.90;99.90;;;;;;5134705;27;19975;-86
2022/09/07 09:23:42;;;;;;;;;;;21.00;99.90;;;;;;5115214;27;19935;-84
2022/09/07 09:26:13;;;;;;;;;;;21.10;99.90;;;;;;5124541;27;19980;-85
2022/09/07 09:28:42;;;;;;;;;;;21.30;99.90;;;;;;5113442;28;19975;-84
2022/09/07 09:31:26;;;;;;;;;;;21.40;99.90;;;;;;5113809;28;19974;-85
2022/09/07 09:34:04;;;;;;;;;;;21.30;99.90;;;;;;5115066;27;19928;-86
2022/09/07 09:36:43;;;;;;;;;;;21.30;99.90;;;;;;5114616;28;20343;-86
2022/09/07 09:39:27;;;;;;;;;;;21.30;99.90;;;;;;5114664;28;20287;-86
2022/09/07 09:41:55;;;;;;;;;;;21.30;99.90;;;;;;5114798;28;20015;-86
2022/09/07 09:44:21;;;;;;;;;;;21.40;99.90;;;;;;5127503;27;19924;-86
2022/09/07 09:46:53;;;;;;;;;;;21.40;99.90;;;;;;5135263;27;19924;-86
2022/09/07 09:49:27;;;;;;;;;;;21.40;99.90;;;;;;5135365;27;19930;-85
2022/09/07 09:51:55;;;;;;;;;;;21.50;99.90;;;;;;5118054;27;19923;-86
2022/09/07 09:54:26;;;;;;;;;;;21.50;99.90;;;;;;5117703;27;20354;-87
2022/09/07 09:56:52;;;;;;;;;;;21.50;99.90;;;;;;5122441;27;19996;-86
2022/09/07 09:59:17;;;;;;;;;;;21.60;99.90;;;;;;5114404;28;20356;-85
2022/09/07 10:01:47;;;;;;;;;;;21.60;99.90;;;;;;5114168;28;19934;-86
2022/09/07 10:04:26;;;;;;;;;;;21.70;99.90;;;;;;5106799;28;20015;-86
2022/09/07 10:07:10;;;;;;;;;;;21.70;99.90;;;;;;5076789;28;19928;-86
2022/09/07 10:09:37;;;;;;;;;;;21.60;99.90;;;;;;5107018;28;19973;-86
2022/09/07 10:12:04;;;;;;;;;;;21.60;99.90;;;;;;5113943;28;20283;-85
2022/09/07 10:14:29;;;;;;;;;;;21.70;99.90;;;;;;5096310;28;19923;-86
2022/09/07 10:16:55;;;;;;;;;;;21.80;99.90;;;;;;5096748;28;20348;-83
2022/09/07 10:19:41;;;;;;;;;;;21.80;99.90;;;;;;5089687;28;19924;-85
2022/09/07 10:22:26;;;;;;;;;;;21.80;99.90;;;;;;5111608;28;20340;-85
2022/09/07 10:24:52;;;;;;;;;;;21.90;99.90;;;;;;5108480;28;19970;-85
2022/09/07 10:27:27;;;;;;;;;;;22.10;99.90;;;;;;5091830;28;19924;-87
2022/09/07 10:29:53;;;;;;;;;;;22.20;99.90;;;;;;5112573;28;19972;-85
2022/09/07 10:32:25;;;;;;;;;;;22.30;99.90;;;;;;5096045;28;19973;-86
2022/09/07 10:35:09;;;;;;;;;;;22.30;99.90;;;;;;5096033;28;19924;-84
2022/09/07 10:37:54;;;;;;;;;;;22.40;99.90;;;;;;5109975;28;20264;-88
2022/09/07 10:40:20;;;;;;;;;;;22.50;99.90;;;;;;5111320;28;19975;-85
2022/09/07 10:42:55;;;;;;;;;;;22.60;99.90;;;;;;5095014;28;20010;-85
2022/09/07 10:45:36;;;;;;;;;;;22.70;99.90;;;;;;5091068;28;19924;-84
2022/09/07 10:48:05;;;;;;;;;;;22.80;99.90;;;;;;5112281;28;20015;-85
2022/09/07 10:50:35;;;;;;;;;;;22.80;99.90;;;;;;5109894;28;19949;-85
2022/09/07 10:53:03;;;;;;;;;;;22.90;99.90;;;;;;5112924;28;19930;-85
2022/09/07 10:55:34;;;;;;;;;;;22.90;99.90;;;;;;5109452;28;19972;-85
2022/09/07 10:58:03;;;;;;;;;;;23.10;99.90;;;;;;5095758;28;19924;-84
2022/09/07 11:00:31;;;;;;;;;;;23.00;99.90;;;;;;5110162;28;19924;-84
2022/09/07 11:03:06;;;;;;;;;;;23.00;99.90;;;;;;5096056;28;19969;-85
2022/09/07 11:05:31;;;;;;;;;;;22.90;99.90;;;;;;5113021;27;20348;-84
2022/09/07 11:08:22;;;;;;;;;;;22.80;99.90;;;;;;5133587;27;19949;-86
2022/09/07 11:11:23;;;;;;;;;;;22.80;99.90;;;;;;5133025;27;19934;-87
2022/09/07 11:13:50;;;;;;;;;;;22.90;99.90;;;;;;5054350;28;20007;-86
2022/09/07 11:16:27;;;;;;;;;;;23.00;99.90;;;;;;5113445;27;19923;-86
2022/09/07 11:19:05;;;;;;;;;;;23.30;99.90;;;;;;5125321;28;19923;-84
2022/09/07 11:21:37;;;;;;;;;;;23.40;99.90;;;;;;5116752;28;19924;-85
2022/09/07 11:24:15;;;;;;;;;;;23.40;99.90;;;;;;5117992;28;19923;-89
2022/09/07 11:26:45;;;;;;;;;;;23.30;99.90;;;;;;5118653;28;19924;-87
2022/09/07 11:29:33;;;;;;;;;;;23.10;99.90;;;;;;5118782;28;19923;-89
2022/09/07 11:32:16;;;;;;;;;;;23.10;99.90;;;;;;5102132;28;20017;-90
2022/09/07 11:34:45;;;;;;;;;;;23.20;99.90;;;;;;5118873;28;19970;-90
2022/09/07 11:37:24;;;;;;;;;;;23.10;99.90;;;;;;5117834;28;20000;-89
2022/09/07 11:40:03;;;;;;;;;;;23.20;99.90;;;;;;5117829;28;20426;-90
2022/09/07 11:42:32;;;;;;;;;;;23.20;99.90;;;;;;5117687;28;20371;-90
2022/09/07 11:45:01;;;;;;;;;;;23.20;99.90;;;;;;5134833;28;19982;-90
2022/09/07 11:47:37;;;;;;;;;;;23.30;99.90;;;;;;5117956;28;19980;-91
2022/09/07 11:50:03;;;;;;;;;;;23.30;99.90;;;;;;5117648;28;19923;-88
2022/09/07 11:52:37;;;;;;;;;;;23.40;99.90;;;;;;5100183;28;19923;-89
2022/09/07 11:55:09;;;;;;;;;;;23.40;99.90;;;;;;5134905;28;20391;-90
2022/09/07 11:57:38;;;;;;;;;;;23.60;99.90;;;;;;5117580;28;19973;-89
2022/09/07 12:00:09;;;;;;;;;;;23.90;99.90;;;;;;5117338;28;20267;-89
2022/09/07 12:02:53;;;;;;;;;;;24.00;99.90;;;;;;5117154;28;19963;-89
2022/09/07 12:05:19;;;;;;;;;;;24.20;99.90;;;;;;5134351;27;19955;-90
2022/09/07 12:07:44;;;;;;;;;;;24.30;99.90;;;;;;5134760;28;19946;-87
2022/09/07 12:10:30;;;;;;;;;;;24.30;99.90;;;;;;5134790;28;19924;-89
2022/09/07 12:12:56;;;;;;;;;;;24.10;99.90;;;;;;5116618;28;20398;-89
2022/09/07 12:15:30;;;;;;;;;;;24.30;99.90;;;;;;5114202;28;19974;-89
2022/09/07 12:18:05;;;;;;;;;;;24.80;99.90;;;;;;5117786;28;19931;-91
2022/09/07 12:20:38;;;;;;;;;;;25.00;99.90;;;;;;5113893;28;19950;-88
2022/09/07 12:23:16;;;;;;;;;;;25.40;99.90;;;;;;5107578;28;19924;-87
2022/09/07 12:25:42;;;;;;;;;;;25.40;99.90;;;;;;5120213;27;20371;-88
2022/09/07 12:28:16;;;;;;;;;;;25.10;99.90;;;;;;5137282;27;20350;-89
2022/09/07 12:30:58;;;;;;;;;;;25.50;99.90;;;;;;5137514;27;19975;-90
2022/09/07 12:33:28;;;;;;;;;;;25.90;99.90;;;;;;5120267;27;19949;-90
2022/09/07 12:35:56;;;;;;;;;;;26.50;99.90;;;;;;5120834;27;19923;-90
2022/09/07 12:38:32;;;;;;;;;;;26.90;99.90;;;;;;5099852;28;20027;-90
2022/09/07 12:41:02;;;;;;;;;;;27.00;99.90;;;;;;5129998;27;19927;-90
2022/09/07 12:43:43;;;;;;;;;;;27.40;99.90;;;;;;5120316;27;20366;-91
2022/09/07 12:46:38;;;;;;;;;;;27.40;99.90;;;;;;5117098;28;20063;-91
2022/09/07 12:49:19;;;;;;;;;;;27.50;99.90;;;;;;5110332;28;20022;-90
2022/09/07 12:51:51;;;;;;;;;;;27.80;99.90;;;;;;5119881;27;19927;-91
2022/09/07 12:54:29;;;;;;;;;;;28.40;99.90;;;;;;5120516;27;20010;-91
2022/09/07 12:56:55;;;;;;;;;;;28.80;99.90;;;;;;5137345;27;19924;-90
2022/09/07 12:59:39;;;;;;;;;;;29.30;99.90;;;;;;5119093;27;19971;-86
2022/09/07 13:02:20;;;;;;;;;;;29.50;99.90;;;;;;5109808;27;19930;-86
2022/09/07 13:04:49;;;;;;;;;;;30.10;99.50;;;;;;5125659;27;19973;-86
2022/09/07 13:07:15;;;;;;;;;;;30.20;98.10;;;;;;5115111;28;19923;-86
2022/09/07 13:09:41;;;;;;;;;;;30.40;98.80;;;;;;5114931;28;19924;-86
2022/09/07 13:12:25;;;;;;;;;;;30.20;97.80;;;;;;5114779;28;20306;-85
2022/09/07 13:14:52;;;;;;;;;;;30.20;98.70;;;;;;5134116;27;19932;-86
2022/09/07 13:17:33;;;;;;;;;;;30.50;98.40;;;;;;5120818;27;19924;-86
2022/09/07 13:19:59;;;;;;;;;;;30.40;98.10;;;;;;5135381;27;19930;-86
2022/09/07 13:22:28;;;;;;;;;;;30.50;97.70;;;;;;5135538;27;20005;-85
2022/09/07 13:24:55;;;;;;;;;;;30.70;97.10;;;;;;5135091;27;19923;-86
2022/09/07 13:27:36;;;;;;;;;;;31.10;97.00;;;;;;5115196;27;19930;-86
2022/09/07 13:30:15;;;;;;;;;;;31.30;96.10;;;;;;5114702;28;19928;-85
2022/09/07 13:32:41;;;;;;;;;;;31.40;95.10;;;;;;5115673;27;20476;-87
2022/09/07 13:35:14;;;;;;;;;;;31.80;94.30;;;;;;5127128;27;20026;-85
2022/09/07 13:37:44;;;;;;;;;;;32.00;95.30;;;;;;5117285;27;19967;-85
2022/09/07 13:40:13;;;;;;;;;;;32.10;94.50;;;;;;5118316;27;19942;-86
2022/09/07 13:42:42;;;;;;;;;;;32.00;94.10;;;;;;5104796;28;19977;-86
2022/09/07 13:45:24;;;;;;;;;;;32.30;94.00;;;;;;5114236;27;19973;-86
2022/09/07 13:47:53;;;;;;;;;;;32.40;92.70;;;;;;5114016;28;19924;-86
2022/09/07 13:50:37;;;;;;;;;;;32.80;93.50;;;;;;5114618;28;19930;-86
2022/09/07 13:53:15;;;;;;;;;;;33.10;91.60;;;;;;5130293;27;19970;-86
2022/09/07 13:56:04;;;;;;;;;;;33.20;92.30;;;;;;5135028;27;20367;-86
2022/09/07 13:58:33;;;;;;;;;;;33.40;91.60;;;;;;5096742;27;19923;-86
2022/09/07 14:01:11;;;;;;;;;;;33.10;90.70;;;;;;5134606;27;19923;-86
2022/09/07 14:03:42;;;;;;;;;;;33.30;91.40;;;;;;5134486;27;19924;-86
2022/09/07 14:06:17;;;;;;;;;;;33.50;90.60;;;;;;5120455;27;20278;-85
2022/09/07 14:08:50;;;;;;;;;;;33.80;90.50;;;;;;5126970;27;19923;-86
2022/09/07 14:11:21;;;;;;;;;;;34.30;90.10;;;;;;5117100;27;20022;-85
2022/09/07 14:14:04;;;;;;;;;;;34.70;91.30;;;;;;5117110;27;19930;-87
2022/09/07 14:16:30;;;;;;;;;;;35.30;89.50;;;;;;5134309;27;19934;-86
2022/09/07 14:18:57;;;;;;;;;;;35.10;88.40;;;;;;5121638;27;20018;-86
2022/09/07 14:21:22;;;;;;;;;;;34.80;86.20;;;;;;5131882;27;19983;-85
2022/09/07 14:23:48;;;;;;;;;;;34.90;87.60;;;;;;5135407;27;19931;-86
2022/09/07 14:26:22;;;;;;;;;;;34.30;88.80;;;;;;5120758;27;19946;-86
2022/09/07 14:28:49;;;;;;;;;;;33.60;86.30;;;;;;5119899;27;19946;-87
2022/09/07 14:31:16;;;;;;;;;;;33.70;88.20;;;;;;5135667;27;20312;-85
2022/09/07 14:34:00;;;;;;;;;;;33.40;86.20;;;;;;5116920;27;19927;-85